Time;durP1;ratioP1;P1;durP2;ratioP2;P2;SDS_P1;SDS_P2;PMS_P1;PMS_P2;Temp;Humidity;BMP_temperature;BMP_pressure;BME280_temperature;BME280_humidity;BME280_pressure;Samples;Min_cycle;Max_cycle;Signal;HPM_P1;HPM_P2
2021/06/05 00:00:51;;;;;;;;;;;;;;;;;;5024852;28;19913;-78
2021/06/05 00:03:17;;;;;;;;;;;;;;;;;;5028806;28;19912;-78
2021/06/05 00:05:43;;;;;;;;;;;;;;;;;;5032452;28;19924;-78
2021/06/05 00:08:09;;;;;;;;;;;;;;;;;;5031956;28;20003;-78
2021/06/05 00:10:35;;;;;;;;;;;;;;;;;;5030848;28;19962;-78
2021/06/05 00:13:01;;;;;;;;;;;;;;;;;;5032922;28;19919;-78
2021/06/05 00:15:26;;;;;;;;;;;;;;;;;;5028917;28;19913;-78
2021/06/05 00:17:52;;;;;;;;;;;;;;;;;;5017031;28;20331;-78
2021/06/05 00:20:18;;;;;;;;;;;;;;;;;;5028194;28;19909;-78
2021/06/05 00:22:44;;;;;;;;;;;;;;;;;;5034317;28;19944;-79
2021/06/05 00:25:10;;;;;;;;;;;;;;;;;;5031151;28;19909;-79
2021/06/05 00:27:36;;;;;;;;;;;;;;;;;;5028248;28;19971;-79
2021/06/05 00:30:02;;;;;;;;;;;;;;;;;;5031946;28;20326;-79
2021/06/05 00:32:28;;;;;;;;;;;;;;;;;;5027358;28;19923;-78
2021/06/05 00:34:54;;;;;;;;;;;;;;;;;;5032823;28;21068;-79
2021/06/05 00:37:20;;;;;;;;;;;;;;;;;;5015329;28;20012;-78
2021/06/05 00:39:45;;;;;;;;;;;;;;;;;;5027222;28;20505;-78
2021/06/05 00:42:11;;;;;;;;;;;;;;;;;;5014314;28;19909;-78
2021/06/05 00:44:37;;;;;;;;;;;;;;;;;;5029391;28;20303;-79
2021/06/05 00:47:03;;;;;;;;;;;;;;;;;;5031525;28;20046;-79
2021/06/05 00:49:29;;;;;;;;;;;;;;;;;;5028642;28;20387;-78
2021/06/05 00:51:58;;;;;;;;;;;;;;;;;;5031381;28;19916;-79
2021/06/05 00:54:24;;;;;;;;;;;;;;;;;;5032307;28;20325;-78
2021/06/05 00:56:50;;;;;;;;;;;;;;;;;;5014512;28;19971;-79
2021/06/05 00:59:16;;;;;;;;;;;;;;;;;;5027254;28;19917;-79
2021/06/05 01:01:41;;;;;;;;;;;;;;;;;;5028902;28;19920;-78
2021/06/05 01:04:07;;;;;;;;;;;;;;;;;;5028837;28;19909;-78
2021/06/05 01:06:33;;;;;;;;;;;;;;;;;;5029016;28;20352;-78
2021/06/05 01:08:59;;;;;;;;;;;;;;;;;;5031064;28;20007;-78
2021/06/05 01:11:25;;;;;;;;;;;;;;;;;;5030112;28;19909;-78
2021/06/05 01:13:51;;;;;;;;;;;;;;;;;;5028334;28;19966;-78
2021/06/05 01:16:17;;;;;;;;;;;;;;;;;;5033703;28;20304;-80
2021/06/05 01:18:43;;;;;;;;;;;;;;;;;;5018615;28;19913;-78
2021/06/05 01:21:09;;;;;;;;;;;;;;;;;;5031866;28;19971;-79
2021/06/05 01:23:35;;;;;;;;;;;;;;;;;;5019967;28;19909;-79
2021/06/05 01:26:01;;;;;;;;;;;;;;;;;;5032694;28;19909;-79
2021/06/05 01:28:27;;;;;;;;;;;;;;;;;;5030654;28;19913;-79
2021/06/05 01:30:53;;;;;;;;;;;;;;;;;;5029563;28;19952;-79
2021/06/05 01:33:21;;;;;;;;;;;;;;;;;;5033233;28;19909;-79
2021/06/05 01:35:47;;;;;;;;;;;;;;;;;;5032022;28;19914;-80
2021/06/05 01:38:13;;;;;;;;;;;;;;;;;;5030161;28;20477;-79
2021/06/05 01:40:39;;;;;;;;;;;;;;;;;;5016801;28;19915;-78
2021/06/05 01:43:05;;;;;;;;;;;;;;;;;;5030893;28;19996;-79
2021/06/05 01:45:31;;;;;;;;;;;;;;;;;;5028821;28;20292;-78
2021/06/05 01:47:57;;;;;;;;;;;;;;;;;;5030502;28;20357;-78
2021/06/05 01:50:23;;;;;;;;;;;;;;;;;;5029025;28;19909;-79
2021/06/05 01:52:48;;;;;;;;;;;;;;;;;;5014495;28;20036;-79
2021/06/05 01:55:15;;;;;;;;;;;;;;;;;;5032982;28;20024;-79
2021/06/05 01:57:41;;;;;;;;;;;;;;;;;;5029090;28;20386;-79
2021/06/05 02:00:07;;;;;;;;;;;;;;;;;;5030057;28;20404;-79
2021/06/05 02:02:33;;;;;;;;;;;;;;;;;;5028623;28;20000;-80
2021/06/05 02:04:59;;;;;;;;;;;;;;;;;;5031096;28;19909;-77
2021/06/05 02:07:24;;;;;;;;;;;;;;;;;;5026213;28;19924;-77
2021/06/05 02:09:50;;;;;;;;;;;;;;;;;;5026734;28;19909;-77
2021/06/05 02:12:16;;;;;;;;;;;;;;;;;;5029333;28;19948;-77
2021/06/05 02:14:42;;;;;;;;;;;;;;;;;;5031808;28;20418;-78
2021/06/05 02:17:08;;;;;;;;;;;;;;;;;;5025936;28;19931;-77
2021/06/05 02:19:34;;;;;;;;;;;;;;;;;;5026384;28;19921;-78
2021/06/05 02:22:00;;;;;;;;;;;;;;;;;;5027342;28;19986;-77
2021/06/05 02:24:26;;;;;;;;;;;;;;;;;;5011690;28;20408;-77
2021/06/05 02:26:51;;;;;;;;;;;;;;;;;;5025697;28;19921;-77
2021/06/05 02:29:17;;;;;;;;;;;;;;;;;;5029990;28;19913;-77
2021/06/05 02:31:43;;;;;;;;;;;;;;;;;;5025324;28;19975;-77
2021/06/05 02:34:09;;;;;;;;;;;;;;;;;;5026095;28;19921;-78
2021/06/05 02:36:35;;;;;;;;;;;;;;;;;;5021301;28;19992;-78
2021/06/05 02:39:01;;;;;;;;;;;;;;;;;;5025890;28;19931;-77
2021/06/05 02:41:27;;;;;;;;;;;;;;;;;;5011358;28;19912;-78
2021/06/05 02:43:53;;;;;;;;;;;;;;;;;;5029050;28;19909;-77
2021/06/05 02:46:19;;;;;;;;;;;;;;;;;;5026225;28;20574;-77
2021/06/05 02:48:45;;;;;;;;;;;;;;;;;;5023998;28;19913;-77
2021/06/05 02:51:11;;;;;;;;;;;;;;;;;;5026006;28;19936;-77
2021/06/05 02:53:36;;;;;;;;;;;;;;;;;;5028907;28;19956;-78
2021/06/05 02:56:02;;;;;;;;;;;;;;;;;;5032903;28;19983;-77
2021/06/05 02:58:28;;;;;;;;;;;;;;;;;;5031771;28;19993;-78
2021/06/05 03:00:54;;;;;;;;;;;;;;;;;;5015412;28;20442;-77
2021/06/05 03:03:20;;;;;;;;;;;;;;;;;;5035610;28;19913;-78
2021/06/05 03:05:46;;;;;;;;;;;;;;;;;;5035715;28;20003;-78
2021/06/05 03:08:12;;;;;;;;;;;;;;;;;;5039476;28;19909;-78
2021/06/05 03:10:38;;;;;;;;;;;;;;;;;;5041630;28;19921;-78
2021/06/05 03:13:04;;;;;;;;;;;;;;;;;;5038800;28;19914;-78
2021/06/05 03:15:30;;;;;;;;;;;;;;;;;;5045049;28;19931;-78
2021/06/05 03:17:56;;;;;;;;;;;;;;;;;;5035060;28;19944;-78
2021/06/05 03:20:21;;;;;;;;;;;;;;;;;;5031066;28;20316;-78
2021/06/05 03:22:47;;;;;;;;;;;;;;;;;;5031585;28;20311;-78
2021/06/05 03:25:13;;;;;;;;;;;;;;;;;;5035699;28;19916;-78
2021/06/05 03:27:39;;;;;;;;;;;;;;;;;;5032360;28;19931;-78
2021/06/05 03:30:08;;;;;;;;;;;;;;;;;;5032025;28;20307;-78
2021/06/05 03:32:34;;;;;;;;;;;;;;;;;;5029512;28;20498;-79
2021/06/05 03:35:00;;;;;;;;;;;;;;;;;;5029573;28;19928;-78
2021/06/05 03:37:26;;;;;;;;;;;;;;;;;;5033549;28;19917;-78
2021/06/05 03:39:52;;;;;;;;;;;;;;;;;;5031394;28;19924;-79
2021/06/05 03:42:17;;;;;;;;;;;;;;;;;;5032357;28;19917;-78
2021/06/05 03:44:43;;;;;;;;;;;;;;;;;;5034277;28;19995;-78
2021/06/05 03:47:09;;;;;;;;;;;;;;;;;;5036649;28;19909;-78
2021/06/05 03:49:35;;;;;;;;;;;;;;;;;;5036105;28;19909;-79
2021/06/05 03:52:01;;;;;;;;;;;;;;;;;;5032657;28;19945;-78
2021/06/05 03:54:27;;;;;;;;;;;;;;;;;;5022812;28;19908;-79
2021/06/05 03:56:53;;;;;;;;;;;;;;;;;;5033920;28;19919;-79
2021/06/05 03:59:19;;;;;;;;;;;;;;;;;;5034334;28;19959;-79
2021/06/05 04:01:45;;;;;;;;;;;;;;;;;;5034158;28;19995;-78
2021/06/05 04:04:11;;;;;;;;;;;;;;;;;;5034184;28;19940;-79
2021/06/05 04:06:37;;;;;;;;;;;;;;;;;;5014498;28;19909;-78
2021/06/05 04:09:03;;;;;;;;;;;;;;;;;;5028063;28;19909;-78
2021/06/05 04:11:29;;;;;;;;;;;;;;;;;;5027945;28;21612;-78
2021/06/05 04:13:55;;;;;;;;;;;;;;;;;;5030615;28;19917;-79
2021/06/05 04:16:22;;;;;;;;;;;;;;;;;;5028082;28;19963;-78
2021/06/05 04:18:48;;;;;;;;;;;;;;;;;;5016257;28;19913;-78
2021/06/05 04:21:14;;;;;;;;;;;;;;;;;;5028042;28;19920;-79
2021/06/05 04:23:40;;;;;;;;;;;;;;;;;;5030908;28;20354;-79
2021/06/05 04:26:06;;;;;;;;;;;;;;;;;;5025690;28;19992;-79
2021/06/05 04:28:32;;;;;;;;;;;;;;;;;;5032402;28;19913;-79
2021/06/05 04:30:58;;;;;;;;;;;;;;;;;;5028974;28;20277;-79
2021/06/05 04:33:24;;;;;;;;;;;;;;;;;;5028793;28;19909;-79
2021/06/05 04:35:49;;;;;;;;;;;;;;;;;;5033778;28;20361;-79
2021/06/05 04:38:15;;;;;;;;;;;;;;;;;;5033423;28;19913;-79
2021/06/05 04:40:41;;;;;;;;;;;;;;;;;;5022113;28;19952;-79
2021/06/05 04:43:07;;;;;;;;;;;;;;;;;;5036207;28;19956;-79
2021/06/05 04:45:33;;;;;;;;;;;;;;;;;;5032213;28;20008;-79
2021/06/05 04:47:59;;;;;;;;;;;;;;;;;;5031640;28;19909;-78
2021/06/05 04:50:25;;;;;;;;;;;;;;;;;;5033169;28;19947;-78
2021/06/05 04:52:51;;;;;;;;;;;;;;;;;;5036866;28;19931;-79
2021/06/05 04:55:17;;;;;;;;;;;;;;;;;;5033490;28;19913;-79
2021/06/05 04:57:42;;;;;;;;;;;;;;;;;;5019738;28;19913;-79
2021/06/05 05:00:08;;;;;;;;;;;;;;;;;;5039345;28;19970;-79
2021/06/05 05:02:35;;;;;;;;;;;;;;;;;;5034351;28;19931;-79
2021/06/05 05:05:01;;;;;;;;;;;;;;;;;;5015955;28;20488;-79
2021/06/05 05:07:27;;;;;;;;;;;;;;;;;;5033725;28;19920;-79
2021/06/05 05:09:52;;;;;;;;;;;;;;;;;;5029902;28;19909;-79
2021/06/05 05:12:18;;;;;;;;;;;;;;;;;;5028007;28;20315;-79
2021/06/05 05:14:44;;;;;;;;;;;;;;;;;;5032294;28;19919;-79
2021/06/05 05:17:10;;;;;;;;;;;;;;;;;;5015497;28;20235;-79
2021/06/05 05:19:36;;;;;;;;;;;;;;;;;;5028849;28;19909;-79
2021/06/05 05:22:02;;;;;;;;;;;;;;;;;;5027714;28;19939;-79
2021/06/05 05:24:28;;;;;;;;;;;;;;;;;;5028077;28;19920;-80
2021/06/05 05:26:54;;;;;;;;;;;;;;;;;;5045152;28;19932;-80
2021/06/05 05:29:20;;;;;;;;;;;;;;;;;;5040328;28;19956;-80
2021/06/05 05:31:45;;;;;;;;;;;;;;;;;;5036482;28;19998;-80
2021/06/05 05:34:11;;;;;;;;;;;;;;;;;;5040451;28;19915;-79
2021/06/05 05:36:37;;;;;;;;;;;;;;;;;;5037135;28;19909;-79
2021/06/05 05:39:03;;;;;;;;;;;;;;;;;;5021246;28;19968;-79
2021/06/05 05:41:29;;;;;;;;;;;;;;;;;;5035485;28;20327;-79
2021/06/05 05:43:55;;;;;;;;;;;;;;;;;;5028081;28;19944;-79
2021/06/05 05:46:21;;;;;;;;;;;;;;;;;;5018482;28;19932;-79
2021/06/05 05:48:47;;;;;;;;;;;;;;;;;;5034649;28;20384;-80
2021/06/05 05:51:13;;;;;;;;;;;;;;;;;;5029739;28;19909;-77
2021/06/05 05:53:40;;;;;;;;;;;;;;;;;;5031100;28;19957;-78
2021/06/05 05:56:06;;;;;;;;;;;;;;;;;;5034080;28;20387;-78
2021/06/05 05:58:32;;;;;;;;;;;;;;;;;;5028915;28;19921;-78
2021/06/05 06:00:58;;;;;;;;;;;;;;;;;;5012903;28;19913;-78
2021/06/05 06:03:24;;;;;;;;;;;;;;;;;;5026856;28;19957;-79
2021/06/05 06:05:49;;;;;;;;;;;;;;;;;;5025148;28;19938;-79
2021/06/05 06:08:15;;;;;;;;;;;;;;;;;;5028349;28;19916;-78
2021/06/05 06:10:41;;;;;;;;;;;;;;;;;;5015507;28;19908;-78
2021/06/05 06:13:07;;;;;;;;;;;;;;;;;;5029248;28;20384;-78
2021/06/05 06:15:33;;;;;;;;;;;;;;;;;;5027866;28;19979;-78
2021/06/05 06:17:59;;;;;;;;;;;;;;;;;;5013508;28;19913;-78
2021/06/05 06:20:25;;;;;;;;;;;;;;;;;;5028052;28;19923;-78
2021/06/05 06:22:51;;;;;;;;;;;;;;;;;;5028072;28;20384;-78
2021/06/05 06:25:19;;;;;;;;;;;;;;;;;;5023869;28;20404;-79
2021/06/05 06:27:45;;;;;;;;;;;;;;;;;;5028696;28;19909;-79
2021/06/05 06:30:12;;;;;;;;;;;;;;;;;;5029488;28;19916;-78
2021/06/05 06:32:38;;;;;;;;;;;;;;;;;;5025225;28;19916;-78
2021/06/05 06:35:04;;;;;;;;;;;;;;;;;;5030183;28;19996;-78
2021/06/05 06:37:30;;;;;;;;;;;;;;;;;;5028307;28;19983;-78
2021/06/05 06:39:55;;;;;;;;;;;;;;;;;;5026303;28;19923;-78
2021/06/05 06:42:21;;;;;;;;;;;;;;;;;;5028353;28;19988;-78
2021/06/05 06:44:47;;;;;;;;;;;;;;;;;;5031400;28;20288;-78
2021/06/05 06:47:13;;;;;;;;;;;;;;;;;;5032995;28;19916;-78
2021/06/05 06:49:39;;;;;;;;;;;;;;;;;;5016303;28;19919;-77
2021/06/05 06:52:05;;;;;;;;;;;;;;;;;;5033158;28;19988;-79
2021/06/05 06:54:31;;;;;;;;;;;;;;;;;;5035163;28;19909;-78
2021/06/05 06:57:02;;;;;;;;;;;;;;;;;;5028699;28;20040;-79
2021/06/05 06:59:28;;;;;;;;;;;;;;;;;;5015135;28;20391;-79
2021/06/05 07:01:54;;;;;;;;;;;;;;;;;;5023718;28;19917;-78
2021/06/05 07:04:20;;;;;;;;;;;;;;;;;;5023071;28;19910;-78
2021/06/05 07:06:46;;;;;;;;;;;;;;;;;;5029597;28;19917;-78
2021/06/05 07:09:13;;;;;;;;;;;;;;;;;;5025309;28;20300;-78
2021/06/05 07:11:39;;;;;;;;;;;;;;;;;;5028679;28;19975;-79
2021/06/05 07:14:05;;;;;;;;;;;;;;;;;;5029403;28;19913;-78
2021/06/05 07:16:31;;;;;;;;;;;;;;;;;;5033304;28;19909;-79
2021/06/05 07:18:57;;;;;;;;;;;;;;;;;;5032312;28;19913;-79
2021/06/05 07:21:23;;;;;;;;;;;;;;;;;;5027916;28;19909;-79
2021/06/05 07:23:49;;;;;;;;;;;;;;;;;;5029413;28;19943;-78
2021/06/05 07:26:15;;;;;;;;;;;;;;;;;;5010835;28;19914;-79
2021/06/05 07:28:42;;;;;;;;;;;;;;;;;;5026516;28;19917;-78
2021/06/05 07:31:08;;;;;;;;;;;;;;;;;;5009364;28;19956;-77
2021/06/05 07:33:34;;;;;;;;;;;;;;;;;;5025712;28;19909;-77
2021/06/05 07:36:00;;;;;;;;;;;;;;;;;;5024803;28;20305;-77
2021/06/05 07:38:26;;;;;;;;;;;;;;;;;;5030262;28;19920;-77
2021/06/05 07:40:51;;;;;;;;;;;;;;;;;;5043741;28;19913;-78
2021/06/05 07:43:17;;;;;;;;;;;;;;;;;;5044196;28;20117;-78
2021/06/05 07:45:43;;;;;;;;;;;;;;;;;;5016402;28;19986;-78
2021/06/05 07:48:09;;;;;;;;;;;;;;;;;;5033297;28;20000;-78
2021/06/05 07:50:35;;;;;;;;;;;;;;;;;;5029038;28;20047;-77
2021/06/05 07:53:01;;;;;;;;;;;;;;;;;;5027728;28;20364;-78
2021/06/05 07:55:27;;;;;;;;;;;;;;;;;;5029082;28;19913;-76
2021/06/05 07:57:53;;;;;;;;;;;;;;;;;;5023723;28;20288;-77
2021/06/05 08:00:19;;;;;;;;;;;;;;;;;;5022860;28;19945;-77
2021/06/05 08:02:44;;;;;;;;;;;;;;;;;;5030364;28;20016;-77
2021/06/05 08:05:10;;;;;;;;;;;;;;;;;;5032723;28;19909;-77
2021/06/05 08:07:36;;;;;;;;;;;;;;;;;;5023764;28;20000;-77
2021/06/05 08:10:02;;;;;;;;;;;;;;;;;;5024473;28;19923;-77
2021/06/05 08:12:28;;;;;;;;;;;;;;;;;;5029535;28;19913;-77
2021/06/05 08:14:54;;;;;;;;;;;;;;;;;;5031367;28;19913;-76
2021/06/05 08:17:20;;;;;;;;;;;;;;;;;;5025592;28;19916;-77
2021/06/05 08:19:46;;;;;;;;;;;;;;;;;;5030892;28;19985;-77
2021/06/05 08:22:12;;;;;;;;;;;;;;;;;;5010125;28;19913;-78
2021/06/05 08:24:38;;;;;;;;;;;;;;;;;;5026632;28;19959;-77
2021/06/05 08:27:03;;;;;;;;;;;;;;;;;;5029045;28;19909;-77
2021/06/05 08:29:30;;;;;;;;;;;;;;;;;;5027815;28;19909;-77
2021/06/05 08:31:56;;;;;;;;;;;;;;;;;;5028040;28;19915;-77
2021/06/05 08:34:23;;;;;;;;;;;;;;;;;;5027295;28;19909;-77
2021/06/05 08:36:49;;;;;;;;;;;;;;;;;;5031714;28;19916;-77
2021/06/05 08:39:15;;;;;;;;;;;;;;;;;;5027214;28;19917;-77
2021/06/05 08:41:41;;;;;;;;;;;;;;;;;;5011840;28;19925;-77
2021/06/05 08:44:06;;;;;;;;;;;;;;;;;;5032056;28;19916;-77
2021/06/05 08:46:32;;;;;;;;;;;;;;;;;;5031451;28;20378;-77
2021/06/05 08:48:58;;;;;;;;;;;;;;;;;;5010552;28;19919;-77
2021/06/05 08:51:24;;;;;;;;;;;;;;;;;;5030965;28;19924;-77
2021/06/05 08:53:50;;;;;;;;;;;;;;;;;;5028512;28;19909;-77
2021/06/05 08:56:16;;;;;;;;;;;;;;;;;;5028791;28;20011;-77
2021/06/05 08:58:44;;;;;;;;;;;;;;;;;;5024340;28;19913;-77
2021/06/05 09:01:10;;;;;;;;;;;;;;;;;;5030090;28;19909;-77
2021/06/05 09:03:36;;;;;;;;;;;;;;;;;;5011777;28;19971;-78
2021/06/05 09:06:02;;;;;;;;;;;;;;;;;;5022435;28;20381;-77
2021/06/05 09:08:28;;;;;;;;;;;;;;;;;;5026274;28;19920;-75
2021/06/05 09:10:54;;;;;;;;;;;;;;;;;;5023571;28;20442;-77
2021/06/05 09:13:20;;;;;;;;;;;;;;;;;;5025266;28;19932;-77
2021/06/05 09:15:46;;;;;;;;;;;;;;;;;;5029493;28;20357;-77
2021/06/05 09:18:12;;;;;;;;;;;;;;;;;;5025899;28;19916;-77
2021/06/05 09:20:38;;;;;;;;;;;;;;;;;;5016578;28;19917;-77
2021/06/05 09:23:04;;;;;;;;;;;;;;;;;;5007927;28;20000;-76
2021/06/05 09:25:30;;;;;;;;;;;;;;;;;;5021167;28;19913;-77
2021/06/05 09:27:56;;;;;;;;;;;;;;;;;;5024179;28;19909;-77
2021/06/05 09:30:23;;;;;;;;;;;;;;;;;;5020094;28;19916;-77
2021/06/05 09:32:49;;;;;;;;;;;;;;;;;;5011065;28;19966;-77
2021/06/05 09:35:15;;;;;;;;;;;;;;;;;;5022919;28;19913;-77
2021/06/05 09:37:41;;;;;;;;;;;;;;;;;;5022234;28;19928;-77
2021/06/05 09:40:07;;;;;;;;;;;;;;;;;;5024707;28;20268;-77
2021/06/05 09:42:33;;;;;;;;;;;;;;;;;;5027603;28;20007;-78
2021/06/05 09:44:59;;;;;;;;;;;;;;;;;;5021740;28;19921;-77
2021/06/05 09:47:27;;;;;;;;;;;;;;;;;;5010040;28;19913;-77
2021/06/05 09:49:56;;;;;;;;;;;;;;;;;;5024795;28;20671;-77
2021/06/05 09:52:22;;;;;;;;;;;;;;;;;;5022146;28;19917;-77
2021/06/05 09:54:48;;;;;;;;;;;;;;;;;;5026216;28;19913;-77
2021/06/05 09:57:14;;;;;;;;;;;;;;;;;;5023942;28;19952;-79
2021/06/05 09:59:40;;;;;;;;;;;;;;;;;;5027964;28;20327;-78
2021/06/05 10:02:06;;;;;;;;;;;;;;;;;;5023931;28;19963;-78
2021/06/05 10:04:32;;;;;;;;;;;;;;;;;;5020687;28;19917;-78
2021/06/05 10:06:58;;;;;;;;;;;;;;;;;;5011688;28;19962;-78
2021/06/05 10:09:23;;;;;;;;;;;;;;;;;;5026345;28;20592;-76
2021/06/05 10:11:49;;;;;;;;;;;;;;;;;;5008631;28;19916;-77
2021/06/05 10:14:15;;;;;;;;;;;;;;;;;;5028961;28;19924;-77
2021/06/05 10:16:41;;;;;;;;;;;;;;;;;;5026326;28;19996;-77
2021/06/05 10:19:08;;;;;;;;;;;;;;;;;;5030477;28;19921;-77
2021/06/05 10:21:34;;;;;;;;;;;;;;;;;;5030138;28;19916;-79
2021/06/05 10:24:00;;;;;;;;;;;;;;;;;;5025400;28;19912;-77
2021/06/05 10:26:26;;;;;;;;;;;;;;;;;;5025408;28;19913;-78
2021/06/05 10:28:52;;;;;;;;;;;;;;;;;;5029688;28;19955;-78
2021/06/05 10:31:17;;;;;;;;;;;;;;;;;;5022911;28;19916;-78
2021/06/05 10:33:43;;;;;;;;;;;;;;;;;;5029019;28;19943;-80
2021/06/05 10:36:09;;;;;;;;;;;;;;;;;;5028811;28;20360;-77
2021/06/05 10:38:35;;;;;;;;;;;;;;;;;;5022286;28;19916;-79
2021/06/05 10:41:01;;;;;;;;;;;;;;;;;;5022789;28;19909;-77
2021/06/05 10:43:27;;;;;;;;;;;;;;;;;;5025271;28;20004;-77
2021/06/05 10:45:57;;;;;;;;;;;;;;;;;;5023568;28;19987;-77
2021/06/05 10:48:23;;;;;;;;;;;;;;;;;;5019734;28;19916;-78
2021/06/05 10:50:49;;;;;;;;;;;;;;;;;;5023611;28;19958;-77
2021/06/05 10:53:14;;;;;;;;;;;;;;;;;;5024386;28;20312;-77
2021/06/05 10:55:40;;;;;;;;;;;;;;;;;;5023543;28;19924;-77
2021/06/05 10:58:06;;;;;;;;;;;;;;;;;;5011810;28;20667;-78
2021/06/05 11:00:32;;;;;;;;;;;;;;;;;;5026297;28;19916;-77
2021/06/05 11:02:58;;;;;;;;;;;;;;;;;;5024723;28;20279;-77
2021/06/05 11:05:28;;;;;;;;;;;;;;;;;;5025414;28;19917;-77
2021/06/05 11:07:54;;;;;;;;;;;;;;;;;;5025783;28;19909;-77
2021/06/05 11:10:20;;;;;;;;;;;;;;;;;;5027692;28;19909;-77
2021/06/05 11:12:46;;;;;;;;;;;;;;;;;;5024023;28;19909;-78
2021/06/05 11:15:12;;;;;;;;;;;;;;;;;;5032308;28;19909;-78
2021/06/05 11:17:38;;;;;;;;;;;;;;;;;;5030480;28;19913;-77
2021/06/05 11:20:08;;;;;;;;;;;;;;;;;;5025337;28;19909;-77
2021/06/05 11:22:34;;;;;;;;;;;;;;;;;;5023661;28;19913;-78
2021/06/05 11:25:00;;;;;;;;;;;;;;;;;;5028723;28;19917;-78
2021/06/05 11:27:26;;;;;;;;;;;;;;;;;;5032088;28;19909;-77
2021/06/05 11:29:52;;;;;;;;;;;;;;;;;;5027477;28;19939;-78
2021/06/05 11:32:18;;;;;;;;;;;;;;;;;;5031391;28;19913;-77
2021/06/05 11:34:44;;;;;;;;;;;;;;;;;;5031289;28;20383;-78
2021/06/05 11:37:10;;;;;;;;;;;;;;;;;;5026523;28;19925;-78
2021/06/05 11:39:36;;;;;;;;;;;;;;;;;;5010652;28;19913;-78
2021/06/05 11:42:02;;;;;;;;;;;;;;;;;;5028049;28;19955;-77
2021/06/05 11:44:28;;;;;;;;;;;;;;;;;;5015550;28;20424;-77
2021/06/05 11:46:54;;;;;;;;;;;;;;;;;;5030429;28;19909;-78
2021/06/05 11:49:20;;;;;;;;;;;;;;;;;;5027992;28;19916;-78
2021/06/05 11:51:45;;;;;;;;;;;;;;;;;;5027893;28;19916;-76
2021/06/05 11:54:14;;;;;;;;;;;;;;;;;;5024747;28;19924;-77
2021/06/05 11:56:40;;;;;;;;;;;;;;;;;;5028189;28;20311;-77
2021/06/05 11:59:06;;;;;;;;;;;;;;;;;;5026909;28;20047;-78
2021/06/05 12:01:32;;;;;;;;;;;;;;;;;;5026678;28;20391;-78
2021/06/05 12:03:58;;;;;;;;;;;;;;;;;;5012905;28;20010;-77
2021/06/05 12:06:24;;;;;;;;;;;;;;;;;;5031607;28;20395;-78
2021/06/05 12:08:51;;;;;;;;;;;;;;;;;;5027158;28;19908;-79
2021/06/05 12:11:17;;;;;;;;;;;;;;;;;;5027991;28;19940;-78
2021/06/05 12:13:43;;;;;;;;;;;;;;;;;;5033150;28;19909;-79
2021/06/05 12:16:09;;;;;;;;;;;;;;;;;;5029770;28;19909;-78
2021/06/05 12:18:35;;;;;;;;;;;;;;;;;;5012011;28;19935;-78
2021/06/05 12:21:03;;;;;;;;;;;;;;;;;;5023581;28;19910;-78
2021/06/05 12:23:29;;;;;;;;;;;;;;;;;;5022906;28;20439;-78
2021/06/05 12:25:54;;;;;;;;;;;;;;;;;;5010633;28;19917;-76
2021/06/05 12:28:20;;;;;;;;;;;;;;;;;;5011269;28;19943;-79
2021/06/05 12:30:47;;;;;;;;;;;;;;;;;;5029498;28;19909;-73
2021/06/05 12:33:13;;;;;;;;;;;;;;;;;;5028422;28;20261;-73
2021/06/05 12:35:39;;;;;;;;;;;;;;;;;;5027406;28;19917;-70
2021/06/05 12:38:05;;;;;;;;;;;;;;;;;;5027445;28;20316;-73
2021/06/05 12:40:31;;;;;;;;;;;;;;;;;;5024876;28;19963;-71
2021/06/05 12:42:57;;;;;;;;;;;;;;;;;;5026613;28;20540;-76
2021/06/05 12:45:23;;;;;;;;;;;;;;;;;;5030289;28;19909;-78
2021/06/05 12:47:49;;;;;;;;;;;;;;;;;;5027065;28;19917;-77
2021/06/05 12:50:14;;;;;;;;;;;;;;;;;;5022730;28;19945;-78
2021/06/05 12:52:40;;;;;;;;;;;;;;;;;;5027405;28;19916;-76
2021/06/05 12:55:06;;;;;;;;;;;;;;;;;;5026549;28;21285;-77
2021/06/05 12:57:32;;;;;;;;;;;;;;;;;;5013084;28;19912;-78
2021/06/05 12:59:58;;;;;;;;;;;;;;;;;;5027536;28;19909;-77
2021/06/05 13:02:24;;;;;;;;;;;;;;;;;;5028098;28;19912;-76
2021/06/05 13:04:50;;;;;;;;;;;;;;;;;;5023876;28;19910;-76
2021/06/05 13:07:16;;;;;;;;;;;;;;;;;;5024853;28;20004;-75
2021/06/05 13:09:42;;;;;;;;;;;;;;;;;;5023231;28;20312;-77
2021/06/05 13:12:08;;;;;;;;;;;;;;;;;;5021830;28;19917;-78
2021/06/05 13:14:34;;;;;;;;;;;;;;;;;;5029208;28;19917;-77
2021/06/05 13:16:59;;;;;;;;;;;;;;;;;;5032719;28;19913;-77
2021/06/05 13:19:25;;;;;;;;;;;;;;;;;;5030819;28;19960;-77
2021/06/05 13:21:51;;;;;;;;;;;;;;;;;;5024507;28;19909;-77
2021/06/05 13:24:17;;;;;;;;;;;;;;;;;;5024633;28;19917;-76
2021/06/05 13:26:43;;;;;;;;;;;;;;;;;;5023582;28;19909;-77
2021/06/05 13:29:09;;;;;;;;;;;;;;;;;;5010678;28;19924;-77
2021/06/05 13:31:35;;;;;;;;;;;;;;;;;;5027613;28;20324;-76
2021/06/05 13:34:01;;;;;;;;;;;;;;;;;;5026985;28;19912;-76
2021/06/05 13:36:27;;;;;;;;;;;;;;;;;;5026240;28;19908;-77
2021/06/05 13:38:53;;;;;;;;;;;;;;;;;;5010473;28;19913;-77
2021/06/05 13:41:19;;;;;;;;;;;;;;;;;;5021841;28;20355;-76
2021/06/05 13:43:45;;;;;;;;;;;;;;;;;;5024137;28;19917;-76
2021/06/05 13:46:11;;;;;;;;;;;;;;;;;;5026643;28;19956;-76
2021/06/05 13:48:37;;;;;;;;;;;;;;;;;;5022427;28;19913;-76
2021/06/05 13:51:02;;;;;;;;;;;;;;;;;;5021731;28;19940;-75
2021/06/05 13:53:28;;;;;;;;;;;;;;;;;;5018232;28;19917;-76
2021/06/05 13:55:54;;;;;;;;;;;;;;;;;;5010508;28;19921;-75
2021/06/05 13:58:20;;;;;;;;;;;;;;;;;;5025472;28;19917;-76
2021/06/05 14:00:47;;;;;;;;;;;;;;;;;;5022063;28;19913;-75
2021/06/05 14:03:13;;;;;;;;;;;;;;;;;;5025105;28;19908;-76
2021/06/05 14:05:39;;;;;;;;;;;;;;;;;;5026219;28;20008;-75
2021/06/05 14:08:05;;;;;;;;;;;;;;;;;;5022815;28;20450;-76
2021/06/05 14:10:31;;;;;;;;;;;;;;;;;;5017716;28;19923;-76
2021/06/05 14:12:57;;;;;;;;;;;;;;;;;;5018335;28;20000;-75
2021/06/05 14:15:23;;;;;;;;;;;;;;;;;;5021112;28;19970;-75
2021/06/05 14:17:49;;;;;;;;;;;;;;;;;;4990467;28;20456;-76
2021/06/05 14:20:15;;;;;;;;;;;;;;;;;;5019258;28;21004;-75
2021/06/05 14:22:40;;;;;;;;;;;;;;;;;;5023296;28;19932;-76
2021/06/05 14:25:06;;;;;;;;;;;;;;;;;;5020609;28;19924;-76
2021/06/05 14:27:32;;;;;;;;;;;;;;;;;;5027605;28;20014;-76
2021/06/05 14:29:58;;;;;;;;;;;;;;;;;;5027412;28;19916;-75
2021/06/05 14:32:24;;;;;;;;;;;;;;;;;;5022586;28;19949;-75
2021/06/05 14:34:50;;;;;;;;;;;;;;;;;;5026319;28;20043;-76
2021/06/05 14:37:16;;;;;;;;;;;;;;;;;;5024527;28;20000;-75
2021/06/05 14:39:42;;;;;;;;;;;;;;;;;;5021232;28;20391;-76
2021/06/05 14:42:08;;;;;;;;;;;;;;;;;;5020606;28;19916;-76
2021/06/05 14:44:35;;;;;;;;;;;;;;;;;;5022793;28;19916;-77
2021/06/05 14:47:01;;;;;;;;;;;;;;;;;;5023483;28;19923;-77
2021/06/05 14:49:26;;;;;;;;;;;;;;;;;;5019002;28;20300;-77
2021/06/05 14:51:52;;;;;;;;;;;;;;;;;;5020723;28;19909;-77
2021/06/05 14:54:18;;;;;;;;;;;;;;;;;;5023251;28;20379;-76
2021/06/05 14:56:44;;;;;;;;;;;;;;;;;;5025213;28;19936;-79
2021/06/05 14:59:10;;;;;;;;;;;;;;;;;;5013678;28;20141;-80
2021/06/05 15:01:36;;;;;;;;;;;;;;;;;;5037389;28;19919;-78
2021/06/05 15:04:02;;;;;;;;;;;;;;;;;;5023371;28;19965;-79
2021/06/05 15:06:28;;;;;;;;;;;;;;;;;;5023232;28;19909;-79
2021/06/05 15:08:54;;;;;;;;;;;;;;;;;;5025325;28;20256;-79
2021/06/05 15:11:20;;;;;;;;;;;;;;;;;;5017739;28;19909;-79
2021/06/05 15:13:46;;;;;;;;;;;;;;;;;;5004523;28;20350;-80
2021/06/05 15:16:12;;;;;;;;;;;;;;;;;;5032717;28;19909;-79
2021/06/05 15:18:38;;;;;;;;;;;;;;;;;;5025024;28;19912;-79
2021/06/05 15:21:04;;;;;;;;;;;;;;;;;;5000938;28;19916;-79
2021/06/05 15:23:30;;;;;;;;;;;;;;;;;;5011216;28;19963;-79
2021/06/05 15:25:56;;;;;;;;;;;;;;;;;;5026539;28;19909;-77
2021/06/05 15:28:22;;;;;;;;;;;;;;;;;;5020427;28;19909;-78
2021/06/05 15:30:48;;;;;;;;;;;;;;;;;;5005048;28;19917;-78
2021/06/05 15:33:14;;;;;;;;;;;;;;;;;;5024725;28;19909;-77
2021/06/05 15:35:40;;;;;;;;;;;;;;;;;;5024083;28;19915;-78
2021/06/05 15:38:06;;;;;;;;;;;;;;;;;;5023100;28;20007;-77
2021/06/05 15:40:33;;;;;;;;;;;;;;;;;;5027922;28;19909;-78
2021/06/05 15:42:58;;;;;;;;;;;;;;;;;;5023361;28;19962;-78
2021/06/05 15:45:24;;;;;;;;;;;;;;;;;;5026710;28;19913;-78
2021/06/05 15:47:50;;;;;;;;;;;;;;;;;;5025345;28;19939;-78
2021/06/05 15:50:16;;;;;;;;;;;;;;;;;;5023364;28;19909;-77
2021/06/05 15:52:42;;;;;;;;;;;;;;;;;;5020827;28;19916;-76
2021/06/05 15:55:08;;;;;;;;;;;;;;;;;;5025247;28;20023;-76
2021/06/05 15:57:34;;;;;;;;;;;;;;;;;;5021810;28;19916;-76
2021/06/05 16:00:00;;;;;;;;;;;;;;;;;;5017696;28;19989;-76
2021/06/05 16:02:26;;;;;;;;;;;;;;;;;;5006349;28;20384;-76
2021/06/05 16:04:52;;;;;;;;;;;;;;;;;;5028532;28;20312;-76
2021/06/05 16:07:18;;;;;;;;;;;;;;;;;;5025176;28;19913;-76
2021/06/05 16:09:44;;;;;;;;;;;;;;;;;;5021355;28;19978;-75
2021/06/05 16:12:10;;;;;;;;;;;;;;;;;;5029257;28;19952;-76
2021/06/05 16:14:36;;;;;;;;;;;;;;;;;;5023529;28;20024;-76
2021/06/05 16:17:02;;;;;;;;;;;;;;;;;;5007703;28;19948;-75
2021/06/05 16:19:30;;;;;;;;;;;;;;;;;;5025414;28;19916;-76
2021/06/05 16:21:56;;;;;;;;;;;;;;;;;;5024442;28;19967;-76
2021/06/05 16:24:22;;;;;;;;;;;;;;;;;;5021345;28;19909;-76
2021/06/05 16:26:48;;;;;;;;;;;;;;;;;;5028203;28;19932;-76
2021/06/05 16:29:14;;;;;;;;;;;;;;;;;;5012520;28;19916;-76
2021/06/05 16:31:40;;;;;;;;;;;;;;;;;;5023138;28;19963;-76
2021/06/05 16:34:05;;;;;;;;;;;;;;;;;;5023467;28;20273;-75
2021/06/05 16:36:31;;;;;;;;;;;;;;;;;;5026434;28;19917;-76